createdAt,value
2022-08-17T00:00:43.645Z,19.70
2022-08-17T00:03:10.519Z,19.70
2022-08-17T00:05:41.896Z,19.60
2022-08-17T00:08:10.317Z,19.60
2022-08-17T00:10:38.524Z,19.60
2022-08-17T00:13:08.541Z,19.50
2022-08-17T00:15:38.318Z,19.50
2022-08-17T00:19:01.060Z,19.50
2022-08-17T00:20:55.234Z,19.40
2022-08-17T00:23:23.690Z,19.40
2022-08-17T00:25:51.880Z,19.40
2022-08-17T00:28:20.950Z,19.30
2022-08-17T00:30:53.530Z,19.30
2022-08-17T00:33:25.916Z,19.30
2022-08-17T00:35:54.823Z,19.20
2022-08-17T00:38:23.269Z,19.20
2022-08-17T00:40:55.873Z,19.10
2022-08-17T00:43:31.916Z,19.00
2022-08-17T00:46:03.193Z,19.00
2022-08-17T00:48:32.118Z,18.90
2022-08-17T00:51:06.660Z,18.90
2022-08-17T00:53:39.645Z,18.90
2022-08-17T00:56:11.767Z,18.80
2022-08-17T00:58:39.984Z,18.80
2022-08-17T01:01:11.524Z,18.80
2022-08-17T01:03:41.492Z,18.70
2022-08-17T01:06:10.095Z,18.70
2022-08-17T01:08:40.448Z,18.60
2022-08-17T01:11:09.451Z,18.50
2022-08-17T01:13:41.208Z,18.50
2022-08-17T01:16:17.059Z,18.50
2022-08-17T01:18:46.815Z,18.60
2022-08-17T01:21:23.535Z,18.50
2022-08-17T01:23:52.895Z,18.60
2022-08-17T01:26:21.418Z,18.60
2022-08-17T01:28:53.888Z,18.60
2022-08-17T01:31:25.504Z,18.60
2022-08-17T01:33:53.660Z,18.60
2022-08-17T01:36:21.771Z,18.60
2022-08-17T01:38:49.769Z,18.60
2022-08-17T01:41:22.601Z,18.60
2022-08-17T01:43:54.781Z,18.50
2022-08-17T01:46:26.901Z,18.50
2022-08-17T01:48:56.043Z,18.40
2022-08-17T01:51:24.150Z,18.30
2022-08-17T01:53:55.117Z,18.20
2022-08-17T01:56:26.254Z,18.20
2022-08-17T01:58:54.596Z,18.20
2022-08-17T02:01:24.802Z,18.20
2022-08-17T02:03:59.625Z,18.20
2022-08-17T02:06:31.419Z,18.10
2022-08-17T02:09:12.215Z,18.10
2022-08-17T02:11:46.849Z,18.10
2022-08-17T02:14:15.177Z,18.00
2022-08-17T02:16:43.688Z,18.10
2022-08-17T02:19:13.669Z,18.00
2022-08-17T02:21:42.880Z,17.90
2022-08-17T02:24:16.641Z,17.90
2022-08-17T02:26:46.895Z,17.80
2022-08-17T02:29:15.762Z,17.80
2022-08-17T02:31:44.217Z,17.80
2022-08-17T02:34:12.566Z,17.70
2022-08-17T02:36:40.896Z,17.70
2022-08-17T02:39:11.766Z,17.80
2022-08-17T02:41:40.846Z,17.80
2022-08-17T02:44:10.084Z,17.80
2022-08-17T02:46:38.026Z,17.90
2022-08-17T02:49:06.301Z,17.90
2022-08-17T02:51:35.236Z,17.90
2022-08-17T02:54:39.814Z,18.00
2022-08-17T02:56:51.253Z,18.00
2022-08-17T02:59:20.552Z,18.00
2022-08-17T03:01:48.701Z,18.00
2022-08-17T03:04:17.032Z,18.00
2022-08-17T03:06:44.929Z,18.00
2022-08-17T03:09:13.218Z,18.10
2022-08-17T03:11:41.151Z,18.10
2022-08-17T03:14:09.229Z,18.00
2022-08-17T03:16:38.405Z,18.10
2022-08-17T03:19:07.276Z,18.10
2022-08-17T03:21:35.279Z,18.10
2022-08-17T03:24:06.906Z,18.20
2022-08-17T03:26:37.154Z,18.20
2022-08-17T03:29:05.028Z,18.20
2022-08-17T03:31:33.013Z,18.30
2022-08-17T03:34:06.387Z,18.20
2022-08-17T03:36:36.142Z,18.20
2022-08-17T03:39:04.443Z,18.20
2022-08-17T03:41:32.552Z,18.10
2022-08-17T03:44:00.488Z,18.00
2022-08-17T03:46:45.930Z,17.80
2022-08-17T03:49:32.662Z,17.70
2022-08-17T03:52:18.174Z,17.50
2022-08-17T03:55:03.718Z,17.50
2022-08-17T03:57:32.802Z,17.40
2022-08-17T04:00:00.729Z,17.30
2022-08-17T04:02:31.793Z,17.20
2022-08-17T04:05:02.042Z,17.20
2022-08-17T04:07:31.664Z,17.30
2022-08-17T04:09:59.747Z,17.40
2022-08-17T04:12:30.863Z,17.50
2022-08-17T04:14:59.345Z,17.60
2022-08-17T04:17:30.140Z,17.70
2022-08-17T04:19:58.156Z,17.80
2022-08-17T04:22:31.230Z,17.90
2022-08-17T04:25:05.161Z,18.00
2022-08-17T04:27:33.182Z,18.00
2022-08-17T04:30:01.514Z,18.00
2022-08-17T04:33:00.634Z,18.10
2022-08-17T04:35:21.155Z,18.10
2022-08-17T04:37:50.885Z,18.20
2022-08-17T04:40:37.360Z,18.30
2022-08-17T04:43:08.636Z,18.30
2022-08-17T04:45:40.536Z,18.30
2022-08-17T04:48:29.857Z,18.30
2022-08-17T04:51:10.267Z,18.30
2022-08-17T04:53:40.937Z,18.30
2022-08-17T04:56:11.573Z,18.40
2022-08-17T04:58:45.635Z,18.50
2022-08-17T05:01:13.811Z,18.50
2022-08-17T05:03:42.662Z,18.70
2022-08-17T05:06:10.905Z,18.80
2022-08-17T05:08:40.701Z,18.80
2022-08-17T05:11:08.848Z,18.80
2022-08-17T05:13:36.757Z,18.70
2022-08-17T05:16:05.611Z,18.80
2022-08-17T05:18:34.084Z,19.00
2022-08-17T05:21:03.279Z,19.00
2022-08-17T05:23:35.588Z,19.10
2022-08-17T05:26:25.777Z,19.30
2022-08-17T05:28:54.944Z,19.50
2022-08-17T05:31:25.712Z,19.60
2022-08-17T05:33:53.916Z,19.70
2022-08-17T05:36:42.546Z,19.80
2022-08-17T05:39:10.780Z,19.90
2022-08-17T05:41:47.567Z,20.00
2022-08-17T05:44:15.620Z,20.10
2022-08-17T05:46:48.536Z,20.10
2022-08-17T05:49:17.174Z,20.10
2022-08-17T05:52:19.912Z,20.10
2022-08-17T05:55:01.909Z,20.10
2022-08-17T05:57:56.094Z,20.10
2022-08-17T06:00:30.267Z,20.20
2022-08-17T06:03:16.372Z,20.10
2022-08-17T06:05:55.818Z,20.20
2022-08-17T06:08:33.177Z,20.20
2022-08-17T06:11:08.609Z,20.20
2022-08-17T06:14:13.091Z,20.30
2022-08-17T06:16:45.851Z,20.30
2022-08-17T06:19:18.111Z,20.30
2022-08-17T06:21:49.709Z,20.40
2022-08-17T06:24:35.727Z,20.40
2022-08-17T06:27:10.547Z,20.50
2022-08-17T06:29:54.819Z,20.50
2022-08-17T06:32:23.250Z,20.50
2022-08-17T06:34:52.443Z,20.50
2022-08-17T06:37:33.710Z,20.50
2022-08-17T06:40:16.592Z,20.50
2022-08-17T06:43:05.294Z,20.50
2022-08-17T06:45:39.924Z,20.50
2022-08-17T06:48:11.874Z,20.40
2022-08-17T06:50:43.664Z,20.50
2022-08-17T06:53:18.866Z,20.50
2022-08-17T06:55:51.652Z,20.60
2022-08-17T06:58:23.728Z,20.60
2022-08-17T07:01:05.461Z,20.60
2022-08-17T07:03:38.022Z,20.50
2022-08-17T07:06:16.894Z,20.40
2022-08-17T07:08:56.524Z,20.40
2022-08-17T07:11:40.345Z,20.50
2022-08-17T07:14:27.053Z,20.60
2022-08-17T07:16:59.473Z,20.60
2022-08-17T07:19:32.896Z,20.50
2022-08-17T07:22:10.751Z,20.60
2022-08-17T07:24:48.228Z,20.60
2022-08-17T07:27:20.880Z,20.60
2022-08-17T07:29:53.601Z,20.40
2022-08-17T07:32:29.366Z,20.40
2022-08-17T07:35:17.961Z,20.50
2022-08-17T07:37:53.159Z,20.60
2022-08-17T07:40:32.312Z,20.60
2022-08-17T07:43:18.790Z,20.60
2022-08-17T07:46:30.457Z,20.70
2022-08-17T07:49:26.000Z,20.70
2022-08-17T07:52:48.078Z,20.80
2022-08-17T07:54:51.111Z,20.90
2022-08-17T07:57:35.447Z,21.00
2022-08-17T08:00:32.175Z,21.00
2022-08-17T08:03:24.643Z,21.00
2022-08-17T08:06:00.336Z,21.00
2022-08-17T08:08:33.847Z,21.00
2022-08-17T08:11:08.539Z,21.00
2022-08-17T08:13:42.774Z,21.00
2022-08-17T08:16:24.605Z,21.10
2022-08-17T08:18:58.415Z,21.20
2022-08-17T08:21:36.625Z,21.20
2022-08-17T08:25:00.536Z,21.40
2022-08-17T08:27:38.664Z,21.60
2022-08-17T08:30:11.646Z,21.80
2022-08-17T08:32:53.474Z,21.90
2022-08-17T08:35:31.034Z,22.00
2022-08-17T08:38:11.112Z,22.00
2022-08-17T08:41:01.063Z,21.90
2022-08-17T08:43:38.328Z,22.00
2022-08-17T08:46:19.921Z,22.20
2022-08-17T08:50:01.803Z,22.30
2022-08-17T08:52:34.371Z,22.40
2022-08-17T08:55:12.807Z,22.60
2022-08-17T08:57:46.688Z,22.60
2022-08-17T09:00:18.383Z,22.70
2022-08-17T09:03:09.242Z,22.70
2022-08-17T09:05:53.497Z,22.90
2022-08-17T09:08:32.339Z,23.10
2022-08-17T09:11:06.835Z,23.30
2022-08-17T09:13:45.266Z,23.50
2022-08-17T09:16:17.352Z,23.70
2022-08-17T09:19:01.044Z,23.60
2022-08-17T09:21:48.729Z,23.40
2022-08-17T09:24:26.227Z,23.40
2022-08-17T09:27:05.966Z,23.30
2022-08-17T09:29:37.942Z,23.50
2022-08-17T09:32:17.820Z,23.50
2022-08-17T09:34:52.678Z,23.40
2022-08-17T09:37:28.281Z,23.30
2022-08-17T09:40:10.558Z,23.20
2022-08-17T09:42:48.510Z,23.20
2022-08-17T09:45:31.457Z,23.20
2022-08-17T09:48:05.573Z,23.20
2022-08-17T09:50:55.337Z,23.20
2022-08-17T09:53:31.769Z,23.20
2022-08-17T09:56:12.857Z,23.00
2022-08-17T09:58:51.370Z,22.90
2022-08-17T10:01:31.486Z,22.80
2022-08-17T10:04:14.295Z,22.60
2022-08-17T10:06:50.318Z,22.60
2022-08-17T10:09:26.055Z,22.60
2022-08-17T10:12:20.217Z,22.60
2022-08-17T10:15:08.189Z,22.70
2022-08-17T10:17:55.514Z,22.80
2022-08-17T10:20:30.165Z,22.90
2022-08-17T10:23:18.616Z,23.10
2022-08-17T10:26:14.984Z,23.20
2022-08-17T10:28:49.838Z,23.30
2022-08-17T10:31:34.761Z,23.50
2022-08-17T10:34:19.124Z,23.50
2022-08-17T10:36:54.648Z,23.60
2022-08-17T10:39:30.521Z,23.70
2022-08-17T10:42:04.176Z,23.80
2022-08-17T10:44:45.396Z,24.00
2022-08-17T10:47:17.407Z,24.20
2022-08-17T10:49:53.449Z,24.30
2022-08-17T10:52:56.051Z,24.20
2022-08-17T10:55:25.727Z,24.50
2022-08-17T10:58:14.401Z,24.60
2022-08-17T11:01:12.571Z,24.80
2022-08-17T11:03:55.010Z,25.20
2022-08-17T11:06:31.307Z,25.40
2022-08-17T11:09:34.895Z,25.50
2022-08-17T11:12:16.137Z,25.80
2022-08-17T11:14:57.905Z,26.00
2022-08-17T11:17:42.821Z,26.40
2022-08-17T11:20:38.790Z,26.10
2022-08-17T11:23:39.877Z,25.90
2022-08-17T11:26:26.302Z,25.80
2022-08-17T11:29:00.142Z,25.70
2022-08-17T11:31:38.417Z,26.10
2022-08-17T11:34:15.063Z,26.20
2022-08-17T11:37:10.659Z,26.10
2022-08-17T11:40:07.575Z,26.30
2022-08-17T11:42:50.473Z,26.50
2022-08-17T11:45:45.530Z,26.40
2022-08-17T11:48:38.921Z,26.50
2022-08-17T11:51:32.488Z,26.30
2022-08-17T11:54:31.802Z,26.00
2022-08-17T11:56:54.574Z,25.90
2022-08-17T11:59:58.617Z,25.90
2022-08-17T12:02:48.089Z,25.70
2022-08-17T12:05:35.034Z,25.20
2022-08-17T12:08:17.707Z,25.30
2022-08-17T12:11:01.432Z,25.00
2022-08-17T12:13:38.428Z,25.00
2022-08-17T12:16:09.955Z,25.10
2022-08-17T12:18:41.817Z,25.20
2022-08-17T12:21:40.240Z,25.30
2022-08-17T12:24:18.809Z,25.50
2022-08-17T12:26:58.357Z,25.60
2022-08-17T12:29:35.825Z,25.40
2022-08-17T12:32:08.348Z,25.40
2022-08-17T12:34:40.598Z,25.50
2022-08-17T12:37:15.166Z,25.60
2022-08-17T12:39:52.425Z,25.40
2022-08-17T12:42:30.305Z,25.40
2022-08-17T12:44:58.435Z,25.50
2022-08-17T12:47:29.478Z,25.60
2022-08-17T12:50:08.273Z,25.80
2022-08-17T12:53:01.097Z,26.10
2022-08-17T12:55:33.109Z,26.30
2022-08-17T12:58:03.677Z,26.50
2022-08-17T13:00:34.654Z,26.70
2022-08-17T13:03:06.006Z,26.60
2022-08-17T13:05:37.042Z,27.00
2022-08-17T13:08:15.247Z,27.50
2022-08-17T13:10:43.814Z,27.80
2022-08-17T13:13:23.345Z,27.90
2022-08-17T13:15:57.186Z,28.30
2022-08-17T13:18:43.340Z,28.40
2022-08-17T13:21:23.653Z,28.70
2022-08-17T13:23:57.263Z,28.80
2022-08-17T13:26:30.299Z,29.00
2022-08-17T13:29:00.603Z,29.10
2022-08-17T13:31:49.229Z,29.00
2022-08-17T13:34:55.076Z,29.30
2022-08-17T13:37:30.859Z,29.30
2022-08-17T13:40:01.177Z,29.50
2022-08-17T13:42:51.741Z,29.90
2022-08-17T13:45:54.048Z,29.90
2022-08-17T13:48:28.757Z,30.20
2022-08-17T13:51:23.647Z,30.20
2022-08-17T13:53:56.581Z,30.30
2022-08-17T13:56:51.239Z,30.40
2022-08-17T13:59:53.124Z,30.80
2022-08-17T14:02:21.483Z,31.00
2022-08-17T14:04:50.284Z,31.60
2022-08-17T14:07:34.756Z,31.60
2022-08-17T14:10:07.544Z,31.60
2022-08-17T14:12:36.709Z,31.50
2022-08-17T14:15:05.523Z,31.50
2022-08-17T14:17:38.879Z,31.30
2022-08-17T14:20:10.804Z,31.80
2022-08-17T14:22:44.668Z,32.50
2022-08-17T14:25:14.824Z,32.70
2022-08-17T14:27:52.765Z,32.90
2022-08-17T14:30:24.001Z,33.40
2022-08-17T14:32:54.689Z,33.80
2022-08-17T14:35:24.848Z,33.90
2022-08-17T14:37:53.661Z,33.70
2022-08-17T14:40:24.538Z,33.80
2022-08-17T14:42:54.371Z,33.90
2022-08-17T14:45:31.926Z,33.60
2022-08-17T14:48:05.506Z,33.90
2022-08-17T14:50:35.350Z,34.40
2022-08-17T14:53:04.379Z,34.20
2022-08-17T14:55:32.723Z,34.90
2022-08-17T14:58:00.668Z,35.40
2022-08-17T15:00:28.670Z,35.80
2022-08-17T15:03:00.006Z,35.80
2022-08-17T15:05:31.806Z,35.90
2022-08-17T15:07:59.747Z,35.30
2022-08-17T15:10:29.495Z,35.40
2022-08-17T15:12:58.224Z,35.30
2022-08-17T15:15:27.200Z,35.20
2022-08-17T15:17:55.232Z,35.60
2022-08-17T15:20:27.126Z,35.50
2022-08-17T15:22:58.881Z,34.70
2022-08-17T15:25:30.051Z,34.70
2022-08-17T15:27:58.340Z,34.50
2022-08-17T15:30:27.855Z,34.20
2022-08-17T15:32:57.900Z,33.90
2022-08-17T15:35:29.165Z,33.70
2022-08-17T15:38:04.948Z,33.60
2022-08-17T15:40:40.209Z,33.90
2022-08-17T15:43:10.372Z,33.50
2022-08-17T15:45:38.636Z,33.20
2022-08-17T15:48:06.973Z,32.70
2022-08-17T15:50:35.037Z,32.70
2022-08-17T15:53:04.847Z,32.20
2022-08-17T15:55:34.005Z,31.90
2022-08-17T15:58:02.070Z,31.80
2022-08-17T16:00:30.687Z,31.60
2022-08-17T16:03:58.452Z,31.20
2022-08-17T16:06:07.432Z,30.90
2022-08-17T16:08:40.843Z,31.00
2022-08-17T16:11:08.963Z,30.90
2022-08-17T16:13:36.910Z,30.50
2022-08-17T16:16:05.338Z,30.30
2022-08-17T16:18:33.319Z,30.30
2022-08-17T16:21:23.465Z,30.40
2022-08-17T16:23:56.130Z,30.10
2022-08-17T16:26:24.858Z,30.00
2022-08-17T16:28:53.474Z,29.90
2022-08-17T16:31:21.716Z,29.90
2022-08-17T16:34:15.764Z,29.80
2022-08-17T16:36:39.100Z,30.00
2022-08-17T16:39:09.015Z,29.80
2022-08-17T16:41:45.465Z,29.70
2022-08-17T16:44:15.725Z,29.70
2022-08-17T16:46:45.674Z,29.40
2022-08-17T16:49:35.937Z,29.20
2022-08-17T16:52:06.858Z,29.30
2022-08-17T16:54:39.420Z,29.30
2022-08-17T16:57:07.790Z,29.10
2022-08-17T16:59:42.523Z,29.20
2022-08-17T17:02:16.237Z,29.20
2022-08-17T17:04:50.614Z,29.20
2022-08-17T17:07:34.854Z,29.00
2022-08-17T17:10:09.628Z,29.00
2022-08-17T17:13:01.546Z,29.10
2022-08-17T17:15:42.060Z,29.00
2022-08-17T17:18:15.694Z,29.00
2022-08-17T17:20:50.600Z,29.00
2022-08-17T17:23:33.232Z,28.90
2022-08-17T17:26:12.580Z,29.00
2022-08-17T17:28:49.122Z,28.90
2022-08-17T17:31:19.979Z,28.70
2022-08-17T17:33:52.817Z,28.60
2022-08-17T17:36:31.285Z,28.50
2022-08-17T17:39:05.172Z,28.30
2022-08-17T17:41:43.389Z,28.30
2022-08-17T17:44:17.868Z,28.20
2022-08-17T17:46:54.200Z,28.10
2022-08-17T17:49:23.670Z,28.00
2022-08-17T17:52:08.102Z,27.90
2022-08-17T17:54:54.128Z,27.70
2022-08-17T17:57:30.721Z,27.70
2022-08-17T18:00:04.699Z,27.60
2022-08-17T18:02:52.193Z,27.50
2022-08-17T18:06:05.478Z,27.50
2022-08-17T18:08:51.053Z,27.40
2022-08-17T18:11:35.352Z,27.30
2022-08-17T18:14:21.962Z,27.20
2022-08-17T18:16:56.228Z,27.00
2022-08-17T18:19:27.230Z,26.90
2022-08-17T18:22:04.129Z,26.80
2022-08-17T18:24:38.064Z,26.80
2022-08-17T18:27:19.241Z,26.70
2022-08-17T18:29:49.336Z,26.60
2022-08-17T18:32:34.518Z,26.50
2022-08-17T18:35:19.231Z,26.40
2022-08-17T18:37:49.552Z,26.20
2022-08-17T18:40:37.428Z,26.10
2022-08-17T18:43:15.577Z,25.90
2022-08-17T18:45:48.110Z,25.80
2022-08-17T18:48:33.027Z,25.70
2022-08-17T18:51:03.212Z,25.60
2022-08-17T18:53:39.204Z,25.50
2022-08-17T18:56:27.111Z,25.40
2022-08-17T18:59:14.885Z,25.30
2022-08-17T19:02:15.326Z,25.20
2022-08-17T19:05:00.630Z,25.20
2022-08-17T19:07:32.529Z,25.10
2022-08-17T19:10:10.196Z,25.00
2022-08-17T19:12:43.181Z,24.90
2022-08-17T19:15:14.479Z,24.80
2022-08-17T19:17:49.243Z,24.70
2022-08-17T19:20:20.576Z,24.60
2022-08-17T19:23:16.578Z,24.60
2022-08-17T19:25:49.531Z,24.50
2022-08-17T19:28:24.585Z,24.50
2022-08-17T19:30:57.638Z,24.40
2022-08-17T19:33:27.961Z,24.40
2022-08-17T19:36:03.941Z,24.40
2022-08-17T19:38:45.597Z,24.30
2022-08-17T19:41:22.811Z,24.30
2022-08-17T19:44:19.451Z,24.20
2022-08-17T19:46:56.344Z,24.20
2022-08-17T19:49:53.344Z,24.10
2022-08-17T19:52:44.082Z,24.10
2022-08-17T19:55:20.868Z,24.00
2022-08-17T19:58:02.180Z,23.90
2022-08-17T20:00:31.514Z,23.90
2022-08-17T20:03:06.332Z,23.80
2022-08-17T20:06:01.414Z,23.80
2022-08-17T20:08:30.070Z,23.70
2022-08-17T20:11:02.939Z,23.60
2022-08-17T20:13:34.305Z,23.60
2022-08-17T20:16:02.892Z,23.60
2022-08-17T20:18:38.005Z,23.50
2022-08-17T20:21:20.084Z,23.50
2022-08-17T20:23:54.287Z,23.50
2022-08-17T20:26:27.259Z,23.50
2022-08-17T20:29:37.333Z,23.40
2022-08-17T20:32:18.764Z,23.40
2022-08-17T20:34:48.302Z,23.30
2022-08-17T20:37:33.601Z,23.30
2022-08-17T20:40:25.849Z,23.20
2022-08-17T20:42:53.874Z,23.10
2022-08-17T20:45:59.334Z,23.00
2022-08-17T20:48:39.136Z,23.00
2022-08-17T20:51:27.084Z,22.90
2022-08-17T20:54:07.492Z,22.80
2022-08-17T20:56:50.516Z,22.70
2022-08-17T20:59:56.808Z,22.60
2022-08-17T21:02:29.928Z,22.60
2022-08-17T21:05:30.220Z,22.50
2022-08-17T21:08:02.097Z,22.50
2022-08-17T21:10:36.993Z,22.40
2022-08-17T21:13:32.863Z,22.40
2022-08-17T21:16:08.732Z,22.30
2022-08-17T21:18:43.357Z,22.30
2022-08-17T21:21:22.059Z,22.20
2022-08-17T21:24:03.748Z,22.20
2022-08-17T21:26:50.814Z,22.20
2022-08-17T21:29:31.046Z,22.10
2022-08-17T21:32:24.288Z,22.10
2022-08-17T21:35:30.006Z,22.10
2022-08-17T21:38:03.886Z,22.00
2022-08-17T21:40:33.687Z,22.00
2022-08-17T21:43:17.810Z,22.00
2022-08-17T21:46:03.135Z,22.00
2022-08-17T21:48:33.300Z,21.90
2022-08-17T21:51:10.347Z,21.90
2022-08-17T21:53:48.883Z,21.90
2022-08-17T21:56:24.390Z,21.90
2022-08-17T21:59:00.121Z,21.90
2022-08-17T22:01:31.215Z,21.80
2022-08-17T22:04:03.315Z,21.80
2022-08-17T22:06:36.676Z,21.80
2022-08-17T22:09:13.631Z,21.80
2022-08-17T22:12:02.508Z,21.80
2022-08-17T22:14:52.247Z,21.80
2022-08-17T22:17:24.038Z,21.80
2022-08-17T22:19:56.263Z,21.90
2022-08-17T22:22:28.370Z,21.90
2022-08-17T22:24:58.077Z,21.90
2022-08-17T22:27:49.664Z,21.90
2022-08-17T22:30:30.026Z,21.90
2022-08-17T22:32:58.684Z,21.90
2022-08-17T22:35:33.768Z,21.90
2022-08-17T22:38:33.135Z,21.90
2022-08-17T22:41:31.673Z,21.70
2022-08-17T22:44:07.333Z,21.50
2022-08-17T22:46:41.492Z,21.50
2022-08-17T22:49:09.488Z,21.50
2022-08-17T22:51:37.590Z,21.50
2022-08-17T22:54:35.423Z,21.60
2022-08-17T22:57:23.689Z,21.70
2022-08-17T22:59:54.397Z,21.70
2022-08-17T23:02:27.019Z,21.90
2022-08-17T23:05:16.833Z,21.90
2022-08-17T23:07:47.179Z,21.90
2022-08-17T23:10:15.991Z,21.90
2022-08-17T23:12:43.933Z,21.90
2022-08-17T23:15:15.412Z,22.00
2022-08-17T23:17:45.277Z,22.00
2022-08-17T23:20:15.809Z,22.00
2022-08-17T23:22:52.561Z,22.10
2022-08-17T23:25:27.956Z,22.10
2022-08-17T23:27:57.265Z,22.20
2022-08-17T23:30:28.531Z,22.20
2022-08-17T23:33:01.106Z,22.30
2022-08-17T23:35:39.587Z,22.30
2022-08-17T23:38:09.195Z,22.40
2022-08-17T23:40:37.654Z,22.30
2022-08-17T23:43:23.457Z,22.30
2022-08-17T23:45:54.443Z,22.30
2022-08-17T23:48:35.073Z,22.30
2022-08-17T23:51:09.031Z,22.20
2022-08-17T23:53:38.480Z,22.20
2022-08-17T23:56:10.433Z,22.20
2022-08-17T23:58:39.381Z,22.20
